sensor_id;sensor_type;location;lat;lon;timestamp;P1;durP1;ratioP1;P2;durP2;ratioP2
60999;SDS011;46879;45.658;11.814;2024-03-06T00:00:33;7.73;;;2.40;;
60999;SDS011;46879;45.658;11.814;2024-03-06T00:05:33;8.27;;;2.45;;
60999;SDS011;46879;45.658;11.814;2024-03-06T00:10:34;5.95;;;2.05;;
60999;SDS011;46879;45.658;11.814;2024-03-06T00:15:36;6.75;;;1.95;;
60999;SDS011;46879;45.658;11.814;2024-03-06T00:20:37;10.50;;;1.90;;
60999;SDS011;46879;45.658;11.814;2024-03-06T00:25:37;4.85;;;1.70;;
60999;SDS011;46879;45.658;11.814;2024-03-06T00:30:38;7.25;;;2.00;;
60999;SDS011;46879;45.658;11.814;2024-03-06T00:35:38;5.53;;;2.13;;
60999;SDS011;46879;45.658;11.814;2024-03-06T00:40:39;3.80;;;2.63;;
60999;SDS011;46879;45.658;11.814;2024-03-06T00:45:39;2.83;;;1.90;;
60999;SDS011;46879;45.658;11.814;2024-03-06T00:50:40;4.32;;;1.80;;
60999;SDS011;46879;45.658;11.814;2024-03-06T00:55:40;4.85;;;1.80;;
60999;SDS011;46879;45.658;11.814;2024-03-06T01:00:41;8.18;;;2.33;;
60999;SDS011;46879;45.658;11.814;2024-03-06T01:05:41;6.93;;;1.77;;
60999;SDS011;46879;45.658;11.814;2024-03-06T01:10:42;4.70;;;1.98;;
60999;SDS011;46879;45.658;11.814;2024-03-06T01:15:42;4.13;;;2.43;;
60999;SDS011;46879;45.658;11.814;2024-03-06T01:20:43;5.37;;;1.87;;
60999;SDS011;46879;45.658;11.814;2024-03-06T01:25:43;4.28;;;1.90;;
60999;SDS011;46879;45.658;11.814;2024-03-06T01:30:43;3.03;;;1.57;;
60999;SDS011;46879;45.658;11.814;2024-03-06T01:35:44;3.10;;;1.60;;
60999;SDS011;46879;45.658;11.814;2024-03-06T01:40:44;5.70;;;1.77;;
60999;SDS011;46879;45.658;11.814;2024-03-06T01:45:45;4.18;;;1.75;;
60999;SDS011;46879;45.658;11.814;2024-03-06T01:50:47;3.60;;;1.67;;
60999;SDS011;46879;45.658;11.814;2024-03-06T01:55:47;3.70;;;1.33;;
60999;SDS011;46879;45.658;11.814;2024-03-06T02:00:49;3.65;;;1.58;;
60999;SDS011;46879;45.658;11.814;2024-03-06T02:05:50;5.57;;;1.98;;
60999;SDS011;46879;45.658;11.814;2024-03-06T02:10:50;6.25;;;1.83;;
60999;SDS011;46879;45.658;11.814;2024-03-06T02:15:51;5.22;;;1.90;;
60999;SDS011;46879;45.658;11.814;2024-03-06T02:20:51;2.45;;;1.50;;
60999;SDS011;46879;45.658;11.814;2024-03-06T02:25:52;6.68;;;1.98;;
60999;SDS011;46879;45.658;11.814;2024-03-06T02:30:52;3.30;;;1.30;;
60999;SDS011;46879;45.658;11.814;2024-03-06T02:35:52;4.07;;;1.50;;
60999;SDS011;46879;45.658;11.814;2024-03-06T02:40:53;5.03;;;1.60;;
60999;SDS011;46879;45.658;11.814;2024-03-06T02:45:53;3.88;;;1.40;;
60999;SDS011;46879;45.658;11.814;2024-03-06T02:50:54;2.00;;;1.40;;
60999;SDS011;46879;45.658;11.814;2024-03-06T02:55:55;5.38;;;1.75;;
60999;SDS011;46879;45.658;11.814;2024-03-06T03:00:55;3.60;;;1.67;;
60999;SDS011;46879;45.658;11.814;2024-03-06T03:05:56;3.93;;;1.40;;
60999;SDS011;46879;45.658;11.814;2024-03-06T03:10:57;2.47;;;1.58;;
60999;SDS011;46879;45.658;11.814;2024-03-06T03:15:57;3.03;;;1.30;;
60999;SDS011;46879;45.658;11.814;2024-03-06T03:20:58;6.53;;;1.20;;
60999;SDS011;46879;45.658;11.814;2024-03-06T03:25:58;4.20;;;1.80;;
60999;SDS011;46879;45.658;11.814;2024-03-06T03:30:59;13.17;;;1.80;;
60999;SDS011;46879;45.658;11.814;2024-03-06T03:35:59;3.43;;;1.53;;
60999;SDS011;46879;45.658;11.814;2024-03-06T03:40:59;4.32;;;1.60;;
60999;SDS011;46879;45.658;11.814;2024-03-06T03:46:00;2.73;;;1.63;;
60999;SDS011;46879;45.658;11.814;2024-03-06T03:51:01;3.23;;;1.50;;
60999;SDS011;46879;45.658;11.814;2024-03-06T03:56:03;3.50;;;1.60;;
60999;SDS011;46879;45.658;11.814;2024-03-06T04:01:04;4.68;;;1.55;;
60999;SDS011;46879;45.658;11.814;2024-03-06T04:06:04;1.92;;;1.30;;
60999;SDS011;46879;45.658;11.814;2024-03-06T04:11:06;3.63;;;1.48;;
60999;SDS011;46879;45.658;11.814;2024-03-06T04:16:07;2.13;;;1.40;;
60999;SDS011;46879;45.658;11.814;2024-03-06T04:21:07;1.30;;;1.20;;
60999;SDS011;46879;45.658;11.814;2024-03-06T04:26:09;2.75;;;1.35;;
60999;SDS011;46879;45.658;11.814;2024-03-06T04:31:09;2.85;;;1.33;;
60999;SDS011;46879;45.658;11.814;2024-03-06T04:36:10;1.35;;;1.20;;
60999;SDS011;46879;45.658;11.814;2024-03-06T04:41:10;5.70;;;1.70;;
60999;SDS011;46879;45.658;11.814;2024-03-06T04:46:14;1.50;;;1.40;;
60999;SDS011;46879;45.658;11.814;2024-03-06T04:51:14;1.50;;;1.40;;
60999;SDS011;46879;45.658;11.814;2024-03-06T04:56:15;2.03;;;1.30;;
60999;SDS011;46879;45.658;11.814;2024-03-06T05:01:18;6.20;;;1.60;;
60999;SDS011;46879;45.658;11.814;2024-03-06T05:06:19;2.43;;;1.50;;
60999;SDS011;46879;45.658;11.814;2024-03-06T05:11:19;6.43;;;1.50;;
60999;SDS011;46879;45.658;11.814;2024-03-06T05:16:20;3.10;;;1.63;;
60999;SDS011;46879;45.658;11.814;2024-03-06T05:21:23;2.63;;;1.60;;
60999;SDS011;46879;45.658;11.814;2024-03-06T05:26:23;1.50;;;1.20;;
60999;SDS011;46879;45.658;11.814;2024-03-06T05:31:24;5.13;;;1.60;;
60999;SDS011;46879;45.658;11.814;2024-03-06T05:36:25;1.88;;;1.40;;
60999;SDS011;46879;45.658;11.814;2024-03-06T05:41:25;5.07;;;1.60;;
60999;SDS011;46879;45.658;11.814;2024-03-06T05:46:25;2.33;;;1.50;;
60999;SDS011;46879;45.658;11.814;2024-03-06T05:51:26;3.57;;;1.40;;
60999;SDS011;46879;45.658;11.814;2024-03-06T05:56:26;3.27;;;1.60;;
60999;SDS011;46879;45.658;11.814;2024-03-06T06:01:27;2.63;;;1.40;;
60999;SDS011;46879;45.658;11.814;2024-03-06T06:06:27;3.50;;;1.60;;
60999;SDS011;46879;45.658;11.814;2024-03-06T06:11:27;4.27;;;1.73;;
60999;SDS011;46879;45.658;11.814;2024-03-06T06:16:34;3.53;;;1.40;;
60999;SDS011;46879;45.658;11.814;2024-03-06T06:21:35;2.55;;;1.30;;
60999;SDS011;46879;45.658;11.814;2024-03-06T06:26:36;2.15;;;1.58;;
60999;SDS011;46879;45.658;11.814;2024-03-06T06:31:36;3.67;;;1.45;;
60999;SDS011;46879;45.658;11.814;2024-03-06T06:36:36;3.77;;;1.40;;
60999;SDS011;46879;45.658;11.814;2024-03-06T06:41:37;1.40;;;1.30;;
60999;SDS011;46879;45.658;11.814;2024-03-06T06:46:38;2.67;;;1.30;;
60999;SDS011;46879;45.658;11.814;2024-03-06T06:51:39;1.95;;;1.48;;
60999;SDS011;46879;45.658;11.814;2024-03-06T06:56:39;5.93;;;1.60;;
60999;SDS011;46879;45.658;11.814;2024-03-06T07:01:40;4.85;;;1.40;;
60999;SDS011;46879;45.658;11.814;2024-03-06T07:06:43;10.35;;;1.88;;
60999;SDS011;46879;45.658;11.814;2024-03-06T07:11:44;3.10;;;1.88;;
60999;SDS011;46879;45.658;11.814;2024-03-06T07:16:45;2.88;;;1.55;;
60999;SDS011;46879;45.658;11.814;2024-03-06T07:21:45;5.70;;;2.38;;
60999;SDS011;46879;45.658;11.814;2024-03-06T07:26:46;4.57;;;1.95;;
60999;SDS011;46879;45.658;11.814;2024-03-06T07:31:46;4.30;;;2.00;;
60999;SDS011;46879;45.658;11.814;2024-03-06T07:36:47;3.92;;;1.50;;
60999;SDS011;46879;45.658;11.814;2024-03-06T07:41:49;5.72;;;2.15;;
60999;SDS011;46879;45.658;11.814;2024-03-06T07:46:49;6.63;;;2.25;;
60999;SDS011;46879;45.658;11.814;2024-03-06T07:51:50;8.10;;;2.15;;
60999;SDS011;46879;45.658;11.814;2024-03-06T07:56:50;7.87;;;1.90;;
60999;SDS011;46879;45.658;11.814;2024-03-06T08:01:51;4.07;;;2.10;;
60999;SDS011;46879;45.658;11.814;2024-03-06T08:06:52;5.72;;;2.47;;
60999;SDS011;46879;45.658;11.814;2024-03-06T08:11:52;4.57;;;2.27;;
60999;SDS011;46879;45.658;11.814;2024-03-06T08:16:54;5.15;;;1.90;;
60999;SDS011;46879;45.658;11.814;2024-03-06T08:21:55;9.18;;;2.08;;
60999;SDS011;46879;45.658;11.814;2024-03-06T08:26:55;6.18;;;2.00;;
60999;SDS011;46879;45.658;11.814;2024-03-06T08:31:57;7.13;;;2.35;;
60999;SDS011;46879;45.658;11.814;2024-03-06T08:36:59;5.63;;;1.85;;
60999;SDS011;46879;45.658;11.814;2024-03-06T08:42:00;4.45;;;2.10;;
60999;SDS011;46879;45.658;11.814;2024-03-06T08:47:02;11.07;;;2.35;;
60999;SDS011;46879;45.658;11.814;2024-03-06T08:52:03;4.75;;;2.28;;
60999;SDS011;46879;45.658;11.814;2024-03-06T08:57:04;3.28;;;2.00;;
60999;SDS011;46879;45.658;11.814;2024-03-06T09:02:17;5.25;;;1.88;;
60999;SDS011;46879;45.658;11.814;2024-03-06T09:07:19;4.60;;;2.25;;
60999;SDS011;46879;45.658;11.814;2024-03-06T09:12:20;4.80;;;1.95;;
60999;SDS011;46879;45.658;11.814;2024-03-06T09:17:20;4.32;;;2.10;;
60999;SDS011;46879;45.658;11.814;2024-03-06T09:22:21;8.30;;;2.23;;
60999;SDS011;46879;45.658;11.814;2024-03-06T09:27:21;2.03;;;1.80;;
60999;SDS011;46879;45.658;11.814;2024-03-06T09:32:21;2.70;;;1.80;;
60999;SDS011;46879;45.658;11.814;2024-03-06T09:37:22;5.05;;;2.10;;
60999;SDS011;46879;45.658;11.814;2024-03-06T09:42:22;5.10;;;2.33;;
60999;SDS011;46879;45.658;11.814;2024-03-06T09:47:23;3.80;;;2.20;;
60999;SDS011;46879;45.658;11.814;2024-03-06T09:52:26;5.03;;;1.95;;
60999;SDS011;46879;45.658;11.814;2024-03-06T09:57:27;5.70;;;1.90;;
60999;SDS011;46879;45.658;11.814;2024-03-06T10:07:33;5.40;;;2.17;;
60999;SDS011;46879;45.658;11.814;2024-03-06T10:12:33;6.75;;;2.15;;
60999;SDS011;46879;45.658;11.814;2024-03-06T10:17:35;3.97;;;2.25;;
60999;SDS011;46879;45.658;11.814;2024-03-06T10:22:35;6.28;;;1.88;;
60999;SDS011;46879;45.658;11.814;2024-03-06T10:27:36;2.47;;;1.90;;
60999;SDS011;46879;45.658;11.814;2024-03-06T10:32:36;4.83;;;2.17;;
60999;SDS011;46879;45.658;11.814;2024-03-06T10:37:37;5.03;;;2.08;;
60999;SDS011;46879;45.658;11.814;2024-03-06T10:42:40;6.72;;;2.42;;
60999;SDS011;46879;45.658;11.814;2024-03-06T10:47:45;5.07;;;1.88;;
60999;SDS011;46879;45.658;11.814;2024-03-06T10:52:47;3.75;;;2.20;;
60999;SDS011;46879;45.658;11.814;2024-03-06T10:57:49;2.85;;;2.22;;
60999;SDS011;46879;45.658;11.814;2024-03-06T11:02:53;3.40;;;2.20;;
60999;SDS011;46879;45.658;11.814;2024-03-06T11:07:53;3.22;;;2.10;;
60999;SDS011;46879;45.658;11.814;2024-03-06T11:12:54;3.25;;;1.92;;
60999;SDS011;46879;45.658;11.814;2024-03-06T11:17:54;5.78;;;2.30;;
60999;SDS011;46879;45.658;11.814;2024-03-06T11:28:08;4.20;;;2.22;;
60999;SDS011;46879;45.658;11.814;2024-03-06T11:33:12;9.73;;;2.40;;
60999;SDS011;46879;45.658;11.814;2024-03-06T11:38:16;4.13;;;2.40;;
60999;SDS011;46879;45.658;11.814;2024-03-06T11:43:23;5.82;;;2.10;;
60999;SDS011;46879;45.658;11.814;2024-03-06T11:48:27;4.32;;;2.28;;
60999;SDS011;46879;45.658;11.814;2024-03-06T11:53:28;3.47;;;2.13;;
60999;SDS011;46879;45.658;11.814;2024-03-06T11:58:30;2.60;;;1.95;;
60999;SDS011;46879;45.658;11.814;2024-03-06T12:03:30;4.53;;;2.20;;
60999;SDS011;46879;45.658;11.814;2024-03-06T12:08:30;5.80;;;2.22;;
60999;SDS011;46879;45.658;11.814;2024-03-06T12:13:31;4.45;;;1.98;;
60999;SDS011;46879;45.658;11.814;2024-03-06T12:18:32;2.53;;;2.22;;
60999;SDS011;46879;45.658;11.814;2024-03-06T12:23:33;3.35;;;2.50;;
60999;SDS011;46879;45.658;11.814;2024-03-06T12:28:34;3.83;;;2.53;;
60999;SDS011;46879;45.658;11.814;2024-03-06T12:33:35;2.38;;;1.92;;
60999;SDS011;46879;45.658;11.814;2024-03-06T12:38:36;5.03;;;2.03;;
60999;SDS011;46879;45.658;11.814;2024-03-06T12:43:37;3.03;;;1.92;;
60999;SDS011;46879;45.658;11.814;2024-03-06T12:48:37;2.80;;;2.40;;
60999;SDS011;46879;45.658;11.814;2024-03-06T12:53:38;4.60;;;2.23;;
60999;SDS011;46879;45.658;11.814;2024-03-06T12:58:38;3.95;;;2.03;;
60999;SDS011;46879;45.658;11.814;2024-03-06T13:03:39;5.28;;;2.17;;
60999;SDS011;46879;45.658;11.814;2024-03-06T13:08:39;7.53;;;2.30;;
60999;SDS011;46879;45.658;11.814;2024-03-06T13:13:39;2.67;;;2.20;;
60999;SDS011;46879;45.658;11.814;2024-03-06T13:18:40;2.80;;;2.33;;
60999;SDS011;46879;45.658;11.814;2024-03-06T13:23:40;2.97;;;2.33;;
60999;SDS011;46879;45.658;11.814;2024-03-06T13:28:41;2.70;;;2.00;;
60999;SDS011;46879;45.658;11.814;2024-03-06T13:33:41;4.65;;;1.92;;
60999;SDS011;46879;45.658;11.814;2024-03-06T13:38:42;4.15;;;2.30;;
60999;SDS011;46879;45.658;11.814;2024-03-06T13:43:43;4.78;;;2.20;;
60999;SDS011;46879;45.658;11.814;2024-03-06T13:48:43;4.47;;;2.33;;
60999;SDS011;46879;45.658;11.814;2024-03-06T13:53:44;6.03;;;2.43;;
60999;SDS011;46879;45.658;11.814;2024-03-06T13:58:44;4.25;;;1.95;;
60999;SDS011;46879;45.658;11.814;2024-03-06T14:03:45;5.78;;;2.17;;
60999;SDS011;46879;45.658;11.814;2024-03-06T14:08:45;2.87;;;2.30;;
60999;SDS011;46879;45.658;11.814;2024-03-06T14:13:45;9.88;;;2.17;;
60999;SDS011;46879;45.658;11.814;2024-03-06T14:18:46;3.58;;;2.13;;
60999;SDS011;46879;45.658;11.814;2024-03-06T14:23:46;4.00;;;2.25;;
60999;SDS011;46879;45.658;11.814;2024-03-06T14:28:47;3.33;;;2.10;;
60999;SDS011;46879;45.658;11.814;2024-03-06T14:33:47;4.22;;;2.13;;
60999;SDS011;46879;45.658;11.814;2024-03-06T14:38:49;9.02;;;1.90;;
60999;SDS011;46879;45.658;11.814;2024-03-06T14:43:49;2.78;;;1.73;;
60999;SDS011;46879;45.658;11.814;2024-03-06T14:48:49;3.33;;;2.03;;
60999;SDS011;46879;45.658;11.814;2024-03-06T14:53:50;2.83;;;2.00;;
60999;SDS011;46879;45.658;11.814;2024-03-06T14:58:50;3.45;;;1.63;;
60999;SDS011;46879;45.658;11.814;2024-03-06T15:03:52;2.80;;;1.80;;
60999;SDS011;46879;45.658;11.814;2024-03-06T15:08:56;3.15;;;1.80;;
60999;SDS011;46879;45.658;11.814;2024-03-06T15:13:57;4.80;;;2.15;;
60999;SDS011;46879;45.658;11.814;2024-03-06T15:18:58;2.20;;;2.00;;
60999;SDS011;46879;45.658;11.814;2024-03-06T15:23:58;6.07;;;2.13;;
60999;SDS011;46879;45.658;11.814;2024-03-06T15:28:59;4.25;;;2.13;;
60999;SDS011;46879;45.658;11.814;2024-03-06T15:33:59;4.72;;;2.17;;
60999;SDS011;46879;45.658;11.814;2024-03-06T15:39:00;4.50;;;2.05;;
60999;SDS011;46879;45.658;11.814;2024-03-06T15:44:00;6.47;;;2.35;;
60999;SDS011;46879;45.658;11.814;2024-03-06T15:49:02;6.13;;;2.17;;
60999;SDS011;46879;45.658;11.814;2024-03-06T15:54:07;7.13;;;3.05;;
60999;SDS011;46879;45.658;11.814;2024-03-06T15:59:08;6.93;;;2.42;;
60999;SDS011;46879;45.658;11.814;2024-03-06T16:04:08;6.80;;;2.17;;
60999;SDS011;46879;45.658;11.814;2024-03-06T16:09:09;9.00;;;2.23;;
60999;SDS011;46879;45.658;11.814;2024-03-06T16:14:13;5.13;;;2.33;;
60999;SDS011;46879;45.658;11.814;2024-03-06T16:19:14;2.80;;;2.08;;
60999;SDS011;46879;45.658;11.814;2024-03-06T16:24:16;4.68;;;2.05;;
60999;SDS011;46879;45.658;11.814;2024-03-06T16:29:16;2.80;;;2.27;;
60999;SDS011;46879;45.658;11.814;2024-03-06T16:34:17;6.20;;;1.92;;
60999;SDS011;46879;45.658;11.814;2024-03-06T16:39:21;5.65;;;2.28;;
60999;SDS011;46879;45.658;11.814;2024-03-06T16:44:23;1.85;;;1.60;;
60999;SDS011;46879;45.658;11.814;2024-03-06T16:49:23;7.05;;;2.20;;
60999;SDS011;46879;45.658;11.814;2024-03-06T16:54:24;3.13;;;1.87;;
60999;SDS011;46879;45.658;11.814;2024-03-06T16:59:24;3.22;;;2.03;;
60999;SDS011;46879;45.658;11.814;2024-03-06T17:04:25;3.40;;;1.83;;
60999;SDS011;46879;45.658;11.814;2024-03-06T17:09:26;1.73;;;1.63;;
60999;SDS011;46879;45.658;11.814;2024-03-06T17:14:27;4.07;;;2.00;;
60999;SDS011;46879;45.658;11.814;2024-03-06T17:19:27;5.63;;;1.85;;
60999;SDS011;46879;45.658;11.814;2024-03-06T17:24:28;2.97;;;1.80;;
60999;SDS011;46879;45.658;11.814;2024-03-06T17:29:29;2.03;;;1.73;;
60999;SDS011;46879;45.658;11.814;2024-03-06T17:34:29;1.87;;;1.50;;
60999;SDS011;46879;45.658;11.814;2024-03-06T17:39:31;3.20;;;1.67;;
60999;SDS011;46879;45.658;11.814;2024-03-06T17:44:31;3.20;;;1.80;;
60999;SDS011;46879;45.658;11.814;2024-03-06T17:49:32;4.50;;;1.98;;
60999;SDS011;46879;45.658;11.814;2024-03-06T17:54:32;5.90;;;1.77;;
60999;SDS011;46879;45.658;11.814;2024-03-06T17:59:34;2.42;;;1.70;;
60999;SDS011;46879;45.658;11.814;2024-03-06T18:04:35;7.53;;;2.00;;
60999;SDS011;46879;45.658;11.814;2024-03-06T18:09:35;1.92;;;1.65;;
60999;SDS011;46879;45.658;11.814;2024-03-06T18:14:36;2.95;;;1.60;;
60999;SDS011;46879;45.658;11.814;2024-03-06T18:19:36;3.90;;;1.77;;
60999;SDS011;46879;45.658;11.814;2024-03-06T18:24:36;2.90;;;1.80;;
60999;SDS011;46879;45.658;11.814;2024-03-06T18:29:37;1.67;;;1.58;;
60999;SDS011;46879;45.658;11.814;2024-03-06T18:34:37;2.00;;;1.65;;
60999;SDS011;46879;45.658;11.814;2024-03-06T18:39:38;2.15;;;1.88;;
60999;SDS011;46879;45.658;11.814;2024-03-06T18:44:38;6.90;;;1.98;;
60999;SDS011;46879;45.658;11.814;2024-03-06T18:49:39;3.42;;;1.80;;
60999;SDS011;46879;45.658;11.814;2024-03-06T18:54:40;2.10;;;1.90;;
60999;SDS011;46879;45.658;11.814;2024-03-06T18:59:40;2.03;;;1.67;;
60999;SDS011;46879;45.658;11.814;2024-03-06T19:04:42;4.05;;;2.10;;
60999;SDS011;46879;45.658;11.814;2024-03-06T19:09:44;2.30;;;1.75;;
60999;SDS011;46879;45.658;11.814;2024-03-06T19:14:45;1.80;;;1.65;;
60999;SDS011;46879;45.658;11.814;2024-03-06T19:19:46;4.63;;;1.90;;
60999;SDS011;46879;45.658;11.814;2024-03-06T19:24:46;4.57;;;1.90;;
60999;SDS011;46879;45.658;11.814;2024-03-06T19:29:47;6.13;;;1.80;;
60999;SDS011;46879;45.658;11.814;2024-03-06T19:34:47;3.83;;;2.17;;
60999;SDS011;46879;45.658;11.814;2024-03-06T19:39:48;6.28;;;2.00;;
60999;SDS011;46879;45.658;11.814;2024-03-06T19:44:50;2.67;;;2.00;;
60999;SDS011;46879;45.658;11.814;2024-03-06T19:49:50;3.97;;;2.10;;
60999;SDS011;46879;45.658;11.814;2024-03-06T19:54:50;3.40;;;2.10;;
60999;SDS011;46879;45.658;11.814;2024-03-06T19:59:51;3.10;;;2.00;;
60999;SDS011;46879;45.658;11.814;2024-03-06T20:04:51;2.50;;;2.10;;
60999;SDS011;46879;45.658;11.814;2024-03-06T20:09:52;3.75;;;2.15;;
60999;SDS011;46879;45.658;11.814;2024-03-06T20:14:52;4.20;;;1.97;;
60999;SDS011;46879;45.658;11.814;2024-03-06T20:19:53;2.90;;;1.93;;
60999;SDS011;46879;45.658;11.814;2024-03-06T20:24:54;8.82;;;2.20;;
60999;SDS011;46879;45.658;11.814;2024-03-06T20:29:54;4.53;;;2.40;;
60999;SDS011;46879;45.658;11.814;2024-03-06T20:34:56;3.22;;;1.92;;
60999;SDS011;46879;45.658;11.814;2024-03-06T20:39:58;4.22;;;2.13;;
60999;SDS011;46879;45.658;11.814;2024-03-06T20:44:58;10.68;;;2.45;;
60999;SDS011;46879;45.658;11.814;2024-03-06T20:49:59;12.23;;;2.10;;
60999;SDS011;46879;45.658;11.814;2024-03-06T20:54:59;4.35;;;2.20;;
60999;SDS011;46879;45.658;11.814;2024-03-06T21:00:00;1.80;;;1.70;;
60999;SDS011;46879;45.658;11.814;2024-03-06T21:05:01;3.00;;;1.90;;
60999;SDS011;46879;45.658;11.814;2024-03-06T21:10:01;2.75;;;1.67;;
60999;SDS011;46879;45.658;11.814;2024-03-06T21:15:02;2.47;;;2.03;;
60999;SDS011;46879;45.658;11.814;2024-03-06T21:20:05;3.55;;;1.85;;
60999;SDS011;46879;45.658;11.814;2024-03-06T21:25:11;5.97;;;2.45;;
60999;SDS011;46879;45.658;11.814;2024-03-06T21:30:12;2.38;;;1.75;;
60999;SDS011;46879;45.658;11.814;2024-03-06T21:35:13;5.65;;;1.98;;
60999;SDS011;46879;45.658;11.814;2024-03-06T21:40:14;2.88;;;1.70;;
60999;SDS011;46879;45.658;11.814;2024-03-06T21:45:14;4.55;;;1.80;;
60999;SDS011;46879;45.658;11.814;2024-03-06T21:50:15;2.72;;;1.90;;
60999;SDS011;46879;45.658;11.814;2024-03-06T21:55:15;4.53;;;1.75;;
60999;SDS011;46879;45.658;11.814;2024-03-06T22:00:16;4.38;;;1.90;;
60999;SDS011;46879;45.658;11.814;2024-03-06T22:05:18;3.78;;;1.88;;
60999;SDS011;46879;45.658;11.814;2024-03-06T22:10:19;3.42;;;1.98;;
60999;SDS011;46879;45.658;11.814;2024-03-06T22:15:19;6.83;;;1.90;;
60999;SDS011;46879;45.658;11.814;2024-03-06T22:20:19;2.42;;;1.58;;
60999;SDS011;46879;45.658;11.814;2024-03-06T22:25:20;3.53;;;1.80;;
60999;SDS011;46879;45.658;11.814;2024-03-06T22:30:20;2.35;;;1.73;;
60999;SDS011;46879;45.658;11.814;2024-03-06T22:35:21;2.27;;;1.90;;
60999;SDS011;46879;45.658;11.814;2024-03-06T22:40:21;11.57;;;1.97;;
60999;SDS011;46879;45.658;11.814;2024-03-06T22:45:22;7.33;;;2.07;;
60999;SDS011;46879;45.658;11.814;2024-03-06T22:50:22;5.55;;;1.80;;
60999;SDS011;46879;45.658;11.814;2024-03-06T22:55:23;3.92;;;2.00;;
60999;SDS011;46879;45.658;11.814;2024-03-06T23:00:23;6.82;;;1.80;;
60999;SDS011;46879;45.658;11.814;2024-03-06T23:05:28;3.03;;;1.88;;
60999;SDS011;46879;45.658;11.814;2024-03-06T23:10:29;2.38;;;1.75;;
60999;SDS011;46879;45.658;11.814;2024-03-06T23:15:30;6.72;;;2.08;;
60999;SDS011;46879;45.658;11.814;2024-03-06T23:20:30;3.63;;;1.70;;
60999;SDS011;46879;45.658;11.814;2024-03-06T23:25:32;4.60;;;1.60;;
60999;SDS011;46879;45.658;11.814;2024-03-06T23:30:33;4.75;;;1.90;;
60999;SDS011;46879;45.658;11.814;2024-03-06T23:35:36;1.50;;;1.40;;
60999;SDS011;46879;45.658;11.814;2024-03-06T23:40:36;4.60;;;1.58;;
60999;SDS011;46879;45.658;11.814;2024-03-06T23:45:37;5.25;;;1.67;;
60999;SDS011;46879;45.658;11.814;2024-03-06T23:50:37;5.60;;;1.97;;
60999;SDS011;46879;45.658;11.814;2024-03-06T23:55:38;3.22;;;1.77;;
